sensor_id;sensor_type;location;lat;lon;timestamp;P1;durP1;ratioP1;P2;durP2;ratioP2
20970;SDS011;10644;48.834;10.088;2022-09-25T00:01:26;43.90;;;23.03;;
20970;SDS011;10644;48.834;10.088;2022-09-25T00:06:29;35.00;;;21.27;;
20970;SDS011;10644;48.834;10.088;2022-09-25T00:08:59;37.97;;;22.60;;
20970;SDS011;10644;48.834;10.088;2022-09-25T00:11:31;33.97;;;20.47;;
20970;SDS011;10644;48.834;10.088;2022-09-25T00:14:00;39.53;;;22.50;;
20970;SDS011;10644;48.834;10.088;2022-09-25T00:18:57;41.93;;;22.73;;
20970;SDS011;10644;48.834;10.088;2022-09-25T00:21:42;36.13;;;20.80;;
20970;SDS011;10644;48.834;10.088;2022-09-25T00:24:08;43.90;;;21.70;;
20970;SDS011;10644;48.834;10.088;2022-09-25T00:26:36;42.80;;;23.20;;
20970;SDS011;10644;48.834;10.088;2022-09-25T00:29:05;43.07;;;23.27;;
20970;SDS011;10644;48.834;10.088;2022-09-25T00:31:36;36.87;;;22.00;;
20970;SDS011;10644;48.834;10.088;2022-09-25T00:34:09;43.40;;;24.00;;
20970;SDS011;10644;48.834;10.088;2022-09-25T00:36:34;39.37;;;21.23;;
20970;SDS011;10644;48.834;10.088;2022-09-25T00:41:51;42.77;;;21.73;;
20970;SDS011;10644;48.834;10.088;2022-09-25T00:50:59;35.97;;;18.43;;
20970;SDS011;10644;48.834;10.088;2022-09-25T00:53:26;46.33;;;20.90;;
20970;SDS011;10644;48.834;10.088;2022-09-25T00:55:55;38.50;;;20.77;;
20970;SDS011;10644;48.834;10.088;2022-09-25T00:58:22;35.37;;;19.77;;
20970;SDS011;10644;48.834;10.088;2022-09-25T01:00:50;49.03;;;20.37;;
20970;SDS011;10644;48.834;10.088;2022-09-25T01:03:17;36.57;;;19.10;;
20970;SDS011;10644;48.834;10.088;2022-09-25T01:05:45;30.47;;;17.20;;
20970;SDS011;10644;48.834;10.088;2022-09-25T01:10:50;39.70;;;18.90;;
20970;SDS011;10644;48.834;10.088;2022-09-25T01:13:17;37.43;;;20.07;;
20970;SDS011;10644;48.834;10.088;2022-09-25T01:18:39;34.67;;;18.67;;
20970;SDS011;10644;48.834;10.088;2022-09-25T01:21:21;37.90;;;19.93;;
20970;SDS011;10644;48.834;10.088;2022-09-25T01:35:02;30.20;;;17.77;;
20970;SDS011;10644;48.834;10.088;2022-09-25T01:40:47;34.63;;;19.47;;
20970;SDS011;10644;48.834;10.088;2022-09-25T01:43:24;41.50;;;19.90;;
20970;SDS011;10644;48.834;10.088;2022-09-25T01:48:51;34.07;;;18.87;;
20970;SDS011;10644;48.834;10.088;2022-09-25T01:51:31;33.83;;;18.07;;
20970;SDS011;10644;48.834;10.088;2022-09-25T01:54:04;43.93;;;18.43;;
20970;SDS011;10644;48.834;10.088;2022-09-25T01:56:39;31.23;;;19.10;;
20970;SDS011;10644;48.834;10.088;2022-09-25T01:59:12;27.00;;;16.00;;
20970;SDS011;10644;48.834;10.088;2022-09-25T02:01:41;34.03;;;18.03;;
20970;SDS011;10644;48.834;10.088;2022-09-25T02:04:15;40.10;;;19.03;;
20970;SDS011;10644;48.834;10.088;2022-09-25T02:06:53;37.23;;;18.97;;
20970;SDS011;10644;48.834;10.088;2022-09-25T02:09:43;32.77;;;18.27;;
20970;SDS011;10644;48.834;10.088;2022-09-25T02:12:22;43.27;;;19.00;;
20970;SDS011;10644;48.834;10.088;2022-09-25T02:15:16;36.63;;;19.07;;
20970;SDS011;10644;48.834;10.088;2022-09-25T02:18:06;32.73;;;18.20;;
20970;SDS011;10644;48.834;10.088;2022-09-25T02:21:08;46.60;;;19.80;;
20970;SDS011;10644;48.834;10.088;2022-09-25T02:23:51;42.43;;;21.30;;
20970;SDS011;10644;48.834;10.088;2022-09-25T02:26:36;33.47;;;17.93;;
20970;SDS011;10644;48.834;10.088;2022-09-25T02:29:02;34.27;;;19.40;;
20970;SDS011;10644;48.834;10.088;2022-09-25T02:31:35;38.73;;;17.87;;
20970;SDS011;10644;48.834;10.088;2022-09-25T02:34:09;25.93;;;16.27;;
20970;SDS011;10644;48.834;10.088;2022-09-25T02:39:30;34.67;;;18.13;;
20970;SDS011;10644;48.834;10.088;2022-09-25T02:51:19;44.90;;;21.53;;
20970;SDS011;10644;48.834;10.088;2022-09-25T03:00:04;31.93;;;19.07;;
20970;SDS011;10644;48.834;10.088;2022-09-25T03:02:31;38.50;;;19.47;;
20970;SDS011;10644;48.834;10.088;2022-09-25T03:04:59;32.50;;;18.43;;
20970;SDS011;10644;48.834;10.088;2022-09-25T03:07:28;31.10;;;17.70;;
20970;SDS011;10644;48.834;10.088;2022-09-25T03:10:13;36.17;;;19.43;;
20970;SDS011;10644;48.834;10.088;2022-09-25T03:12:42;30.37;;;16.53;;
20970;SDS011;10644;48.834;10.088;2022-09-25T03:15:08;34.90;;;18.80;;
20970;SDS011;10644;48.834;10.088;2022-09-25T03:18:01;39.60;;;20.00;;
20970;SDS011;10644;48.834;10.088;2022-09-25T03:20:34;28.70;;;17.77;;
20970;SDS011;10644;48.834;10.088;2022-09-25T03:23:00;29.53;;;16.50;;
20970;SDS011;10644;48.834;10.088;2022-09-25T03:25:26;33.37;;;17.13;;
20970;SDS011;10644;48.834;10.088;2022-09-25T03:33:43;25.50;;;15.70;;
20970;SDS011;10644;48.834;10.088;2022-09-25T03:36:18;28.10;;;15.87;;
20970;SDS011;10644;48.834;10.088;2022-09-25T03:38:52;28.33;;;16.03;;
20970;SDS011;10644;48.834;10.088;2022-09-25T03:41:23;32.13;;;16.77;;
20970;SDS011;10644;48.834;10.088;2022-09-25T03:43:52;25.30;;;15.57;;
20970;SDS011;10644;48.834;10.088;2022-09-25T03:46:28;25.73;;;14.57;;
20970;SDS011;10644;48.834;10.088;2022-09-25T03:49:06;26.50;;;15.10;;
20970;SDS011;10644;48.834;10.088;2022-09-25T03:54:19;36.33;;;15.40;;
20970;SDS011;10644;48.834;10.088;2022-09-25T03:56:49;24.70;;;15.23;;
20970;SDS011;10644;48.834;10.088;2022-09-25T04:05:02;32.03;;;16.80;;
20970;SDS011;10644;48.834;10.088;2022-09-25T04:07:35;30.43;;;16.53;;
20970;SDS011;10644;48.834;10.088;2022-09-25T04:10:00;29.23;;;14.70;;
20970;SDS011;10644;48.834;10.088;2022-09-25T04:12:27;22.50;;;14.07;;
20970;SDS011;10644;48.834;10.088;2022-09-25T04:14:54;32.80;;;14.83;;
20970;SDS011;10644;48.834;10.088;2022-09-25T04:17:20;28.80;;;15.30;;
20970;SDS011;10644;48.834;10.088;2022-09-25T04:19:48;28.00;;;13.20;;
20970;SDS011;10644;48.834;10.088;2022-09-25T04:22:14;28.13;;;14.43;;
20970;SDS011;10644;48.834;10.088;2022-09-25T04:24:42;30.10;;;13.80;;
20970;SDS011;10644;48.834;10.088;2022-09-25T04:30:05;21.63;;;13.83;;
20970;SDS011;10644;48.834;10.088;2022-09-25T04:32:31;23.93;;;13.73;;
20970;SDS011;10644;48.834;10.088;2022-09-25T04:35:15;23.07;;;13.63;;
20970;SDS011;10644;48.834;10.088;2022-09-25T04:37:41;24.97;;;12.70;;
20970;SDS011;10644;48.834;10.088;2022-09-25T04:40:10;30.17;;;15.10;;
20970;SDS011;10644;48.834;10.088;2022-09-25T04:42:35;21.00;;;12.73;;
20970;SDS011;10644;48.834;10.088;2022-09-25T04:45:03;25.60;;;15.00;;
20970;SDS011;10644;48.834;10.088;2022-09-25T04:47:33;27.10;;;14.90;;
20970;SDS011;10644;48.834;10.088;2022-09-25T04:50:02;25.53;;;15.17;;
20970;SDS011;10644;48.834;10.088;2022-09-25T04:52:27;32.60;;;16.67;;
20970;SDS011;10644;48.834;10.088;2022-09-25T04:57:51;27.30;;;14.83;;
20970;SDS011;10644;48.834;10.088;2022-09-25T05:00:24;31.20;;;15.90;;
20970;SDS011;10644;48.834;10.088;2022-09-25T05:05:29;30.17;;;15.27;;
20970;SDS011;10644;48.834;10.088;2022-09-25T05:07:57;29.50;;;14.20;;
20970;SDS011;10644;48.834;10.088;2022-09-25T05:10:41;29.00;;;15.40;;
20970;SDS011;10644;48.834;10.088;2022-09-25T05:13:09;38.70;;;17.60;;
20970;SDS011;10644;48.834;10.088;2022-09-25T05:15:35;30.80;;;18.20;;
20970;SDS011;10644;48.834;10.088;2022-09-25T05:20:49;29.87;;;16.90;;
20970;SDS011;10644;48.834;10.088;2022-09-25T05:23:16;41.97;;;23.20;;
20970;SDS011;10644;48.834;10.088;2022-09-25T05:25:42;33.60;;;18.63;;
20970;SDS011;10644;48.834;10.088;2022-09-25T05:28:08;28.60;;;14.27;;
20970;SDS011;10644;48.834;10.088;2022-09-25T05:30:35;29.10;;;16.10;;
20970;SDS011;10644;48.834;10.088;2022-09-25T05:33:02;28.37;;;14.33;;
20970;SDS011;10644;48.834;10.088;2022-09-25T05:35:30;55.10;;;28.87;;
20970;SDS011;10644;48.834;10.088;2022-09-25T05:37:56;52.27;;;28.10;;
20970;SDS011;10644;48.834;10.088;2022-09-25T05:42:51;32.20;;;15.87;;
20970;SDS011;10644;48.834;10.088;2022-09-25T05:45:21;36.10;;;15.60;;
20970;SDS011;10644;48.834;10.088;2022-09-25T05:47:59;27.37;;;17.03;;
20970;SDS011;10644;48.834;10.088;2022-09-25T05:50:39;37.93;;;18.53;;
20970;SDS011;10644;48.834;10.088;2022-09-25T05:56:04;33.53;;;17.10;;
20970;SDS011;10644;48.834;10.088;2022-09-25T05:58:30;25.30;;;15.07;;
20970;SDS011;10644;48.834;10.088;2022-09-25T06:01:03;26.50;;;15.77;;
20970;SDS011;10644;48.834;10.088;2022-09-25T06:03:32;26.37;;;15.63;;
20970;SDS011;10644;48.834;10.088;2022-09-25T06:05:58;29.50;;;16.53;;
20970;SDS011;10644;48.834;10.088;2022-09-25T06:08:26;30.67;;;15.53;;
20970;SDS011;10644;48.834;10.088;2022-09-25T06:10:57;31.80;;;15.77;;
20970;SDS011;10644;48.834;10.088;2022-09-25T06:13:24;25.37;;;14.53;;
20970;SDS011;10644;48.834;10.088;2022-09-25T06:18:20;25.20;;;14.33;;
20970;SDS011;10644;48.834;10.088;2022-09-25T06:20:47;26.13;;;14.67;;
20970;SDS011;10644;48.834;10.088;2022-09-25T06:23:18;20.47;;;13.00;;
20970;SDS011;10644;48.834;10.088;2022-09-25T06:25:43;25.90;;;15.17;;
20970;SDS011;10644;48.834;10.088;2022-09-25T06:28:10;27.03;;;15.00;;
20970;SDS011;10644;48.834;10.088;2022-09-25T06:30:38;30.17;;;14.30;;
20970;SDS011;10644;48.834;10.088;2022-09-25T06:33:12;25.60;;;15.13;;
20970;SDS011;10644;48.834;10.088;2022-09-25T06:35:48;25.83;;;15.40;;
20970;SDS011;10644;48.834;10.088;2022-09-25T06:38:23;29.40;;;15.67;;
20970;SDS011;10644;48.834;10.088;2022-09-25T06:41:06;29.30;;;15.80;;
20970;SDS011;10644;48.834;10.088;2022-09-25T06:43:36;26.27;;;14.37;;
20970;SDS011;10644;48.834;10.088;2022-09-25T06:46:10;23.00;;;15.73;;
20970;SDS011;10644;48.834;10.088;2022-09-25T06:48:35;22.33;;;15.10;;
20970;SDS011;10644;48.834;10.088;2022-09-25T06:51:12;24.97;;;15.10;;
20970;SDS011;10644;48.834;10.088;2022-09-25T06:53:43;25.83;;;14.43;;
20970;SDS011;10644;48.834;10.088;2022-09-25T06:56:17;31.23;;;15.23;;
20970;SDS011;10644;48.834;10.088;2022-09-25T06:58:42;30.10;;;15.10;;
20970;SDS011;10644;48.834;10.088;2022-09-25T07:01:08;20.83;;;12.63;;
20970;SDS011;10644;48.834;10.088;2022-09-25T07:03:45;20.90;;;12.97;;
20970;SDS011;10644;48.834;10.088;2022-09-25T07:06:21;16.40;;;10.87;;
20970;SDS011;10644;48.834;10.088;2022-09-25T07:08:49;29.30;;;13.27;;
20970;SDS011;10644;48.834;10.088;2022-09-25T07:11:20;27.77;;;17.50;;
20970;SDS011;10644;48.834;10.088;2022-09-25T07:14:03;81.50;;;38.60;;
20970;SDS011;10644;48.834;10.088;2022-09-25T07:16:31;27.63;;;16.37;;
20970;SDS011;10644;48.834;10.088;2022-09-25T07:19:04;59.47;;;33.30;;
20970;SDS011;10644;48.834;10.088;2022-09-25T07:21:30;18.90;;;11.80;;
20970;SDS011;10644;48.834;10.088;2022-09-25T07:23:56;16.47;;;10.50;;
20970;SDS011;10644;48.834;10.088;2022-09-25T07:26:26;18.87;;;11.67;;
20970;SDS011;10644;48.834;10.088;2022-09-25T07:31:28;32.20;;;11.93;;
20970;SDS011;10644;48.834;10.088;2022-09-25T07:34:05;20.13;;;11.50;;
20970;SDS011;10644;48.834;10.088;2022-09-25T07:36:35;28.87;;;12.67;;
20970;SDS011;10644;48.834;10.088;2022-09-25T07:39:02;18.83;;;11.00;;
20970;SDS011;10644;48.834;10.088;2022-09-25T07:41:38;21.83;;;12.13;;
20970;SDS011;10644;48.834;10.088;2022-09-25T07:44:04;28.10;;;13.10;;
20970;SDS011;10644;48.834;10.088;2022-09-25T07:46:36;23.90;;;12.30;;
20970;SDS011;10644;48.834;10.088;2022-09-25T07:49:19;21.03;;;13.83;;
20970;SDS011;10644;48.834;10.088;2022-09-25T07:54:40;31.00;;;16.50;;
20970;SDS011;10644;48.834;10.088;2022-09-25T07:57:13;55.20;;;25.87;;
20970;SDS011;10644;48.834;10.088;2022-09-25T07:59:43;38.97;;;19.67;;
20970;SDS011;10644;48.834;10.088;2022-09-25T08:02:14;38.43;;;16.10;;
20970;SDS011;10644;48.834;10.088;2022-09-25T08:04:46;33.10;;;15.40;;
20970;SDS011;10644;48.834;10.088;2022-09-25T08:07:12;23.77;;;14.00;;
20970;SDS011;10644;48.834;10.088;2022-09-25T08:14:50;22.40;;;13.70;;
20970;SDS011;10644;48.834;10.088;2022-09-25T08:17:26;24.00;;;13.47;;
20970;SDS011;10644;48.834;10.088;2022-09-25T08:19:55;27.70;;;14.50;;
20970;SDS011;10644;48.834;10.088;2022-09-25T08:22:32;25.27;;;15.53;;
20970;SDS011;10644;48.834;10.088;2022-09-25T08:25:06;36.50;;;14.67;;
20970;SDS011;10644;48.834;10.088;2022-09-25T08:27:37;20.40;;;12.57;;
20970;SDS011;10644;48.834;10.088;2022-09-25T08:32:35;21.47;;;14.30;;
20970;SDS011;10644;48.834;10.088;2022-09-25T08:35:02;26.10;;;14.50;;
20970;SDS011;10644;48.834;10.088;2022-09-25T08:37:30;36.13;;;17.27;;
20970;SDS011;10644;48.834;10.088;2022-09-25T08:40:14;24.30;;;15.37;;
20970;SDS011;10644;48.834;10.088;2022-09-25T08:42:55;27.73;;;16.13;;
20970;SDS011;10644;48.834;10.088;2022-09-25T08:48:36;34.33;;;16.03;;
20970;SDS011;10644;48.834;10.088;2022-09-25T08:51:30;25.37;;;14.57;;
20970;SDS011;10644;48.834;10.088;2022-09-25T08:53:59;25.80;;;15.10;;
20970;SDS011;10644;48.834;10.088;2022-09-25T08:56:32;31.00;;;14.20;;
20970;SDS011;10644;48.834;10.088;2022-09-25T09:01:50;31.50;;;15.30;;
20970;SDS011;10644;48.834;10.088;2022-09-25T09:07:09;27.43;;;16.27;;
20970;SDS011;10644;48.834;10.088;2022-09-25T09:09:40;28.80;;;15.20;;
20970;SDS011;10644;48.834;10.088;2022-09-25T09:12:16;27.80;;;15.43;;
20970;SDS011;10644;48.834;10.088;2022-09-25T09:14:48;27.47;;;15.57;;
20970;SDS011;10644;48.834;10.088;2022-09-25T09:17:26;33.57;;;14.83;;
20970;SDS011;10644;48.834;10.088;2022-09-25T09:19:58;25.87;;;12.40;;
20970;SDS011;10644;48.834;10.088;2022-09-25T09:22:38;27.43;;;13.70;;
20970;SDS011;10644;48.834;10.088;2022-09-25T09:33:34;24.60;;;14.30;;
20970;SDS011;10644;48.834;10.088;2022-09-25T09:45:10;30.13;;;14.60;;
20970;SDS011;10644;48.834;10.088;2022-09-25T09:47:41;24.43;;;12.60;;
20970;SDS011;10644;48.834;10.088;2022-09-25T09:56:09;24.83;;;11.43;;
20970;SDS011;10644;48.834;10.088;2022-09-25T09:58:55;19.80;;;9.77;;
20970;SDS011;10644;48.834;10.088;2022-09-25T10:01:25;13.47;;;6.93;;
20970;SDS011;10644;48.834;10.088;2022-09-25T10:09:42;21.03;;;9.93;;
20970;SDS011;10644;48.834;10.088;2022-09-25T10:12:11;15.23;;;8.73;;
20970;SDS011;10644;48.834;10.088;2022-09-25T10:14:44;23.00;;;8.13;;
20970;SDS011;10644;48.834;10.088;2022-09-25T10:17:19;15.03;;;7.70;;
20970;SDS011;10644;48.834;10.088;2022-09-25T10:22:23;20.70;;;8.80;;
20970;SDS011;10644;48.834;10.088;2022-09-25T10:25:01;22.77;;;8.63;;
20970;SDS011;10644;48.834;10.088;2022-09-25T10:30:16;19.50;;;9.70;;
20970;SDS011;10644;48.834;10.088;2022-09-25T10:35:42;18.10;;;7.93;;
20970;SDS011;10644;48.834;10.088;2022-09-25T10:41:17;19.23;;;7.83;;
20970;SDS011;10644;48.834;10.088;2022-09-25T10:47:27;12.20;;;6.00;;
20970;SDS011;10644;48.834;10.088;2022-09-25T10:52:47;32.87;;;8.83;;
20970;SDS011;10644;48.834;10.088;2022-09-25T10:55:36;11.17;;;6.67;;
20970;SDS011;10644;48.834;10.088;2022-09-25T10:58:20;21.37;;;8.23;;
20970;SDS011;10644;48.834;10.088;2022-09-25T11:00:55;13.27;;;7.03;;
20970;SDS011;10644;48.834;10.088;2022-09-25T11:03:27;9.20;;;6.53;;
20970;SDS011;10644;48.834;10.088;2022-09-25T11:08:45;14.00;;;7.37;;
20970;SDS011;10644;48.834;10.088;2022-09-25T11:13:56;14.47;;;6.70;;
20970;SDS011;10644;48.834;10.088;2022-09-25T11:21:53;19.47;;;7.47;;
20970;SDS011;10644;48.834;10.088;2022-09-25T11:27:42;19.73;;;7.77;;
20970;SDS011;10644;48.834;10.088;2022-09-25T11:36:15;13.33;;;6.77;;
20970;SDS011;10644;48.834;10.088;2022-09-25T11:38:57;10.70;;;6.40;;
20970;SDS011;10644;48.834;10.088;2022-09-25T11:41:57;15.40;;;7.57;;
20970;SDS011;10644;48.834;10.088;2022-09-25T11:47:29;11.33;;;6.60;;
20970;SDS011;10644;48.834;10.088;2022-09-25T11:50:07;14.00;;;7.23;;
20970;SDS011;10644;48.834;10.088;2022-09-25T11:52:49;15.77;;;7.07;;
20970;SDS011;10644;48.834;10.088;2022-09-25T11:55:34;12.50;;;6.87;;
20970;SDS011;10644;48.834;10.088;2022-09-25T11:58:16;15.80;;;7.40;;
20970;SDS011;10644;48.834;10.088;2022-09-25T12:01:23;10.97;;;7.20;;
20970;SDS011;10644;48.834;10.088;2022-09-25T12:04:02;13.93;;;7.47;;
20970;SDS011;10644;48.834;10.088;2022-09-25T12:13:05;25.50;;;10.37;;
20970;SDS011;10644;48.834;10.088;2022-09-25T12:21:32;21.50;;;10.80;;
20970;SDS011;10644;48.834;10.088;2022-09-25T12:38:33;15.53;;;10.50;;
20970;SDS011;10644;48.834;10.088;2022-09-25T12:43:52;20.43;;;11.90;;
20970;SDS011;10644;48.834;10.088;2022-09-25T12:49:26;28.57;;;12.53;;
20970;SDS011;10644;48.834;10.088;2022-09-25T12:52:16;18.43;;;12.10;;
20970;SDS011;10644;48.834;10.088;2022-09-25T12:58:13;22.60;;;11.23;;
20970;SDS011;10644;48.834;10.088;2022-09-25T13:03:42;22.50;;;10.60;;
20970;SDS011;10644;48.834;10.088;2022-09-25T13:06:18;20.53;;;11.00;;
20970;SDS011;10644;48.834;10.088;2022-09-25T13:12:04;16.60;;;9.93;;
20970;SDS011;10644;48.834;10.088;2022-09-25T13:17:27;19.50;;;11.00;;
20970;SDS011;10644;48.834;10.088;2022-09-25T13:22:55;11.70;;;8.90;;
20970;SDS011;10644;48.834;10.088;2022-09-25T13:25:38;16.30;;;10.20;;
20970;SDS011;10644;48.834;10.088;2022-09-25T13:28:21;15.70;;;9.90;;
20970;SDS011;10644;48.834;10.088;2022-09-25T13:36:55;28.93;;;11.93;;
20970;SDS011;10644;48.834;10.088;2022-09-25T13:59:22;21.97;;;13.13;;
20970;SDS011;10644;48.834;10.088;2022-09-25T14:05:17;27.00;;;13.43;;
20970;SDS011;10644;48.834;10.088;2022-09-25T14:07:55;28.10;;;13.23;;
20970;SDS011;10644;48.834;10.088;2022-09-25T14:13:10;23.07;;;13.00;;
20970;SDS011;10644;48.834;10.088;2022-09-25T14:21:43;22.60;;;12.47;;
20970;SDS011;10644;48.834;10.088;2022-09-25T14:27:34;28.97;;;13.63;;
20970;SDS011;10644;48.834;10.088;2022-09-25T14:30:08;26.73;;;13.40;;
20970;SDS011;10644;48.834;10.088;2022-09-25T14:32:50;23.43;;;11.33;;
20970;SDS011;10644;48.834;10.088;2022-09-25T14:41:14;20.63;;;11.90;;
20970;SDS011;10644;48.834;10.088;2022-09-25T14:44:26;30.30;;;13.50;;
20970;SDS011;10644;48.834;10.088;2022-09-25T14:47:13;24.73;;;12.70;;
20970;SDS011;10644;48.834;10.088;2022-09-25T14:49:48;32.47;;;13.50;;
20970;SDS011;10644;48.834;10.088;2022-09-25T14:52:21;23.63;;;12.50;;
20970;SDS011;10644;48.834;10.088;2022-09-25T14:54:49;50.20;;;15.40;;
20970;SDS011;10644;48.834;10.088;2022-09-25T14:57:20;19.97;;;12.67;;
20970;SDS011;10644;48.834;10.088;2022-09-25T15:00:02;27.63;;;12.57;;
20970;SDS011;10644;48.834;10.088;2022-09-25T15:02:39;27.00;;;13.90;;
20970;SDS011;10644;48.834;10.088;2022-09-25T15:07:51;32.80;;;14.53;;
20970;SDS011;10644;48.834;10.088;2022-09-25T15:13:30;24.47;;;14.00;;
20970;SDS011;10644;48.834;10.088;2022-09-25T15:15:57;39.30;;;13.87;;
20970;SDS011;10644;48.834;10.088;2022-09-25T15:18:58;26.87;;;14.70;;
20970;SDS011;10644;48.834;10.088;2022-09-25T15:21:31;41.50;;;16.17;;
20970;SDS011;10644;48.834;10.088;2022-09-25T15:24:03;29.10;;;15.97;;
20970;SDS011;10644;48.834;10.088;2022-09-25T15:26:48;32.27;;;15.90;;
20970;SDS011;10644;48.834;10.088;2022-09-25T15:29:21;45.63;;;15.73;;
20970;SDS011;10644;48.834;10.088;2022-09-25T15:31:48;30.40;;;15.70;;
20970;SDS011;10644;48.834;10.088;2022-09-25T15:34:19;22.20;;;14.40;;
20970;SDS011;10644;48.834;10.088;2022-09-25T15:36:50;28.83;;;14.73;;
20970;SDS011;10644;48.834;10.088;2022-09-25T15:41:53;35.53;;;16.50;;
20970;SDS011;10644;48.834;10.088;2022-09-25T15:46:51;29.00;;;15.80;;
20970;SDS011;10644;48.834;10.088;2022-09-25T15:49:24;29.83;;;16.87;;
20970;SDS011;10644;48.834;10.088;2022-09-25T15:52:17;30.43;;;16.97;;
20970;SDS011;10644;48.834;10.088;2022-09-25T15:54:49;38.23;;;16.60;;
20970;SDS011;10644;48.834;10.088;2022-09-25T15:57:25;30.03;;;17.10;;
20970;SDS011;10644;48.834;10.088;2022-09-25T15:59:53;27.60;;;16.47;;
20970;SDS011;10644;48.834;10.088;2022-09-25T16:02:57;30.27;;;18.27;;
20970;SDS011;10644;48.834;10.088;2022-09-25T16:11:02;41.77;;;19.07;;
20970;SDS011;10644;48.834;10.088;2022-09-25T16:13:35;27.73;;;17.13;;
20970;SDS011;10644;48.834;10.088;2022-09-25T16:16:15;43.83;;;19.07;;
20970;SDS011;10644;48.834;10.088;2022-09-25T16:18:54;32.37;;;16.33;;
20970;SDS011;10644;48.834;10.088;2022-09-25T16:21:29;65.17;;;19.73;;
20970;SDS011;10644;48.834;10.088;2022-09-25T16:24:00;31.53;;;15.63;;
20970;SDS011;10644;48.834;10.088;2022-09-25T16:26:36;38.93;;;16.73;;
20970;SDS011;10644;48.834;10.088;2022-09-25T16:31:38;26.70;;;13.33;;
20970;SDS011;10644;48.834;10.088;2022-09-25T16:34:17;26.73;;;13.47;;
20970;SDS011;10644;48.834;10.088;2022-09-25T16:37:21;26.57;;;13.00;;
20970;SDS011;10644;48.834;10.088;2022-09-25T16:40:08;29.50;;;11.53;;
20970;SDS011;10644;48.834;10.088;2022-09-25T16:42:54;16.33;;;9.27;;
20970;SDS011;10644;48.834;10.088;2022-09-25T16:45:25;20.93;;;9.07;;
20970;SDS011;10644;48.834;10.088;2022-09-25T16:47:59;23.73;;;8.70;;
20970;SDS011;10644;48.834;10.088;2022-09-25T16:50:56;23.83;;;8.07;;
20970;SDS011;10644;48.834;10.088;2022-09-25T16:53:31;22.50;;;9.17;;
20970;SDS011;10644;48.834;10.088;2022-09-25T16:55:58;20.87;;;8.10;;
20970;SDS011;10644;48.834;10.088;2022-09-25T16:58:23;12.93;;;7.63;;
20970;SDS011;10644;48.834;10.088;2022-09-25T17:00:51;14.83;;;7.87;;
20970;SDS011;10644;48.834;10.088;2022-09-25T17:03:16;16.07;;;8.20;;
20970;SDS011;10644;48.834;10.088;2022-09-25T17:05:45;23.67;;;10.13;;
20970;SDS011;10644;48.834;10.088;2022-09-25T17:10:39;14.97;;;7.77;;
20970;SDS011;10644;48.834;10.088;2022-09-25T17:13:06;21.47;;;8.10;;
20970;SDS011;10644;48.834;10.088;2022-09-25T17:15:33;11.60;;;7.47;;
20970;SDS011;10644;48.834;10.088;2022-09-25T17:18:02;17.17;;;8.10;;
20970;SDS011;10644;48.834;10.088;2022-09-25T17:20:31;26.33;;;12.63;;
20970;SDS011;10644;48.834;10.088;2022-09-25T17:22:56;22.70;;;9.40;;
20970;SDS011;10644;48.834;10.088;2022-09-25T17:25:41;29.53;;;9.77;;
20970;SDS011;10644;48.834;10.088;2022-09-25T17:28:09;19.80;;;11.00;;
20970;SDS011;10644;48.834;10.088;2022-09-25T17:30:38;27.70;;;10.27;;
20970;SDS011;10644;48.834;10.088;2022-09-25T17:33:18;24.60;;;10.23;;
20970;SDS011;10644;48.834;10.088;2022-09-25T17:38:13;18.33;;;8.63;;
20970;SDS011;10644;48.834;10.088;2022-09-25T17:40:40;31.03;;;8.10;;
20970;SDS011;10644;48.834;10.088;2022-09-25T17:43:13;35.03;;;8.53;;
20970;SDS011;10644;48.834;10.088;2022-09-25T17:45:46;15.70;;;7.33;;
20970;SDS011;10644;48.834;10.088;2022-09-25T17:48:17;33.07;;;8.50;;
20970;SDS011;10644;48.834;10.088;2022-09-25T17:50:55;15.23;;;6.57;;
20970;SDS011;10644;48.834;10.088;2022-09-25T17:53:24;16.93;;;7.57;;
20970;SDS011;10644;48.834;10.088;2022-09-25T17:55:59;22.37;;;7.67;;
20970;SDS011;10644;48.834;10.088;2022-09-25T17:58:26;18.53;;;7.23;;
20970;SDS011;10644;48.834;10.088;2022-09-25T18:00:59;21.00;;;8.30;;
20970;SDS011;10644;48.834;10.088;2022-09-25T18:03:27;12.63;;;7.40;;
20970;SDS011;10644;48.834;10.088;2022-09-25T18:06:02;18.30;;;8.67;;
20970;SDS011;10644;48.834;10.088;2022-09-25T18:08:38;24.43;;;9.57;;
20970;SDS011;10644;48.834;10.088;2022-09-25T18:11:04;22.03;;;8.83;;
20970;SDS011;10644;48.834;10.088;2022-09-25T18:13:30;15.80;;;9.00;;
20970;SDS011;10644;48.834;10.088;2022-09-25T18:15:59;19.20;;;9.23;;
20970;SDS011;10644;48.834;10.088;2022-09-25T18:18:25;12.60;;;8.50;;
20970;SDS011;10644;48.834;10.088;2022-09-25T18:21:18;12.70;;;8.87;;
20970;SDS011;10644;48.834;10.088;2022-09-25T18:24:02;19.23;;;10.20;;
20970;SDS011;10644;48.834;10.088;2022-09-25T18:26:28;15.30;;;9.10;;
20970;SDS011;10644;48.834;10.088;2022-09-25T18:28:54;16.10;;;9.20;;
20970;SDS011;10644;48.834;10.088;2022-09-25T18:33:55;17.40;;;10.37;;
20970;SDS011;10644;48.834;10.088;2022-09-25T18:36:23;40.03;;;10.90;;
20970;SDS011;10644;48.834;10.088;2022-09-25T18:38:58;19.47;;;9.27;;
20970;SDS011;10644;48.834;10.088;2022-09-25T18:41:24;17.50;;;9.53;;
20970;SDS011;10644;48.834;10.088;2022-09-25T18:43:52;11.93;;;8.03;;
20970;SDS011;10644;48.834;10.088;2022-09-25T18:46:19;19.53;;;8.37;;
20970;SDS011;10644;48.834;10.088;2022-09-25T18:49:00;11.40;;;9.37;;
20970;SDS011;10644;48.834;10.088;2022-09-25T18:51:25;16.20;;;8.43;;
20970;SDS011;10644;48.834;10.088;2022-09-25T18:53:53;10.53;;;8.10;;
20970;SDS011;10644;48.834;10.088;2022-09-25T18:56:18;15.70;;;10.97;;
20970;SDS011;10644;48.834;10.088;2022-09-25T18:58:44;13.90;;;9.53;;
20970;SDS011;10644;48.834;10.088;2022-09-25T19:01:12;12.97;;;9.67;;
20970;SDS011;10644;48.834;10.088;2022-09-25T19:03:42;17.53;;;10.07;;
20970;SDS011;10644;48.834;10.088;2022-09-25T19:06:09;14.63;;;9.60;;
20970;SDS011;10644;48.834;10.088;2022-09-25T19:08:37;12.07;;;8.07;;
20970;SDS011;10644;48.834;10.088;2022-09-25T19:11:15;13.97;;;9.27;;
20970;SDS011;10644;48.834;10.088;2022-09-25T19:13:48;13.03;;;8.70;;
20970;SDS011;10644;48.834;10.088;2022-09-25T19:18:48;12.90;;;8.90;;
20970;SDS011;10644;48.834;10.088;2022-09-25T19:21:17;12.40;;;9.23;;
20970;SDS011;10644;48.834;10.088;2022-09-25T19:26:20;18.77;;;10.33;;
20970;SDS011;10644;48.834;10.088;2022-09-25T19:28:58;14.67;;;10.60;;
20970;SDS011;10644;48.834;10.088;2022-09-25T19:31:25;37.00;;;13.13;;
20970;SDS011;10644;48.834;10.088;2022-09-25T19:33:52;19.40;;;11.63;;
20970;SDS011;10644;48.834;10.088;2022-09-25T19:36:26;16.43;;;10.80;;
20970;SDS011;10644;48.834;10.088;2022-09-25T19:38:55;18.60;;;10.83;;
20970;SDS011;10644;48.834;10.088;2022-09-25T19:41:30;13.80;;;10.57;;
20970;SDS011;10644;48.834;10.088;2022-09-25T19:44:01;21.90;;;10.17;;
20970;SDS011;10644;48.834;10.088;2022-09-25T19:46:30;15.33;;;9.57;;
20970;SDS011;10644;48.834;10.088;2022-09-25T19:48:59;14.53;;;10.40;;
20970;SDS011;10644;48.834;10.088;2022-09-25T19:51:25;14.70;;;9.73;;